createdAt,value
2022-09-26T00:00:19.512Z,61.31
2022-09-26T00:01:37.232Z,61.37
2022-09-26T00:02:10.515Z,62.66
2022-09-26T00:02:45.167Z,63.84
2022-09-26T00:03:18.620Z,63.85
2022-09-26T00:03:55.576Z,63.07
2022-09-26T00:04:32.787Z,62.52
2022-09-26T00:05:06.809Z,61.77
2022-09-26T00:05:39.996Z,60.98
2022-09-26T00:06:13.797Z,60.19
2022-09-26T00:06:47.848Z,59.60
2022-09-26T00:07:21.179Z,58.88
2022-09-26T00:07:54.368Z,58.19
2022-09-26T00:08:27.570Z,57.98
2022-09-26T00:09:00.887Z,58.08
2022-09-26T00:09:34.081Z,58.50
2022-09-26T00:10:07.726Z,59.14
2022-09-26T00:10:40.765Z,59.86
2022-09-26T00:11:18.010Z,60.43
2022-09-26T00:11:51.298Z,60.99
2022-09-26T00:12:24.333Z,62.00
2022-09-26T00:12:57.510Z,62.47
2022-09-26T00:13:32.316Z,63.06
2022-09-26T00:14:09.300Z,63.57
2022-09-26T00:14:42.759Z,63.64
2022-09-26T00:15:16.007Z,63.28
2022-09-26T00:15:49.324Z,62.74
2022-09-26T00:16:22.753Z,61.76
2022-09-26T00:16:56.733Z,61.11
2022-09-26T00:17:30.049Z,60.26
2022-09-26T00:18:03.306Z,59.92
2022-09-26T00:18:37.028Z,59.58
2022-09-26T00:19:10.272Z,59.27
2022-09-26T00:19:43.338Z,59.03
2022-09-26T00:20:17.049Z,59.08
2022-09-26T00:20:50.978Z,59.26
2022-09-26T00:21:25.483Z,59.73
2022-09-26T00:21:58.666Z,60.30
2022-09-26T00:22:31.705Z,60.93
2022-09-26T00:23:04.910Z,61.67
2022-09-26T00:23:39.135Z,62.30
2022-09-26T00:24:12.605Z,62.91
2022-09-26T00:24:45.672Z,63.59
2022-09-26T00:25:19.766Z,63.92
2022-09-26T00:25:52.792Z,63.98
2022-09-26T00:26:28.381Z,63.89
2022-09-26T00:27:01.529Z,63.57
2022-09-26T00:27:34.661Z,63.31
2022-09-26T00:28:07.671Z,63.01
2022-09-26T00:28:41.782Z,62.62
2022-09-26T00:29:15.469Z,62.27
2022-09-26T00:29:48.738Z,61.97
2022-09-26T00:30:22.000Z,61.77
2022-09-26T00:30:56.892Z,61.57
2022-09-26T00:31:32.910Z,61.40
2022-09-26T00:32:06.036Z,61.33
2022-09-26T00:32:39.079Z,61.09
2022-09-26T00:33:12.837Z,60.84
2022-09-26T00:33:45.922Z,60.64
2022-09-26T00:34:20.260Z,60.38
2022-09-26T00:34:53.843Z,60.39
2022-09-26T00:35:26.834Z,60.09
2022-09-26T00:36:00.385Z,59.72
2022-09-26T00:36:38.414Z,59.24
2022-09-26T00:37:12.087Z,58.63
2022-09-26T00:37:45.294Z,58.49
2022-09-26T00:38:19.375Z,58.73
2022-09-26T00:38:52.550Z,59.15
2022-09-26T00:39:25.549Z,59.82
2022-09-26T00:39:59.005Z,60.18
2022-09-26T00:40:32.885Z,60.81
2022-09-26T00:41:07.690Z,61.33
2022-09-26T00:41:40.904Z,61.93
2022-09-26T00:42:15.719Z,62.65
2022-09-26T00:42:48.796Z,63.20
2022-09-26T00:43:44.482Z,63.59
2022-09-26T00:44:45.370Z,64.01
2022-09-26T00:45:19.545Z,63.25
2022-09-26T00:45:53.952Z,61.49
2022-09-26T00:46:48.506Z,60.70
2022-09-26T00:47:29.775Z,60.51
2022-09-26T00:48:05.887Z,59.20
2022-09-26T00:48:41.594Z,58.36
2022-09-26T00:49:31.394Z,58.10
2022-09-26T00:50:14.750Z,58.09
2022-09-26T00:50:48.453Z,59.04
2022-09-26T00:51:21.900Z,59.95
2022-09-26T00:52:07.539Z,60.31
2022-09-26T00:52:46.046Z,60.62
2022-09-26T00:53:36.070Z,61.53
2022-09-26T00:54:16.790Z,61.94
2022-09-26T00:54:52.071Z,62.77
2022-09-26T00:55:30.325Z,63.52
2022-09-26T00:56:10.235Z,64.03
2022-09-26T00:56:47.653Z,63.67
2022-09-26T00:57:33.592Z,62.78
2022-09-26T00:58:12.901Z,62.19
2022-09-26T00:58:54.647Z,61.06
2022-09-26T00:59:34.286Z,60.26
2022-09-26T01:00:11.022Z,59.29
2022-09-26T01:00:47.369Z,58.51
2022-09-26T01:01:21.448Z,58.37
2022-09-26T01:01:58.871Z,58.68
2022-09-26T01:02:32.398Z,58.94
2022-09-26T01:03:05.692Z,59.58
2022-09-26T01:03:41.917Z,60.17
2022-09-26T01:04:15.674Z,60.77
2022-09-26T01:04:48.875Z,61.42
2022-09-26T01:05:24.135Z,61.98
2022-09-26T01:05:58.323Z,62.47
2022-09-26T01:06:32.444Z,63.17
2022-09-26T01:07:11.272Z,63.54
2022-09-26T01:07:44.824Z,63.75
2022-09-26T01:08:25.552Z,63.46
2022-09-26T01:09:09.162Z,63.20
2022-09-26T01:09:43.069Z,62.48
2022-09-26T01:10:16.613Z,61.13
2022-09-26T01:10:50.755Z,60.29
2022-09-26T01:11:23.729Z,59.60
2022-09-26T01:11:57.440Z,58.80
2022-09-26T01:12:30.951Z,57.99
2022-09-26T01:13:04.649Z,57.69
2022-09-26T01:13:39.489Z,57.76
2022-09-26T01:14:13.705Z,58.14
2022-09-26T01:14:48.878Z,58.66
2022-09-26T01:15:21.968Z,59.21
2022-09-26T01:15:55.058Z,59.91
2022-09-26T01:16:28.344Z,60.55
2022-09-26T01:17:02.247Z,61.15
2022-09-26T01:17:39.070Z,61.72
2022-09-26T01:18:12.383Z,62.22
2022-09-26T01:18:46.429Z,62.97
2022-09-26T01:19:56.375Z,63.59
2022-09-26T01:21:10.406Z,64.67
2022-09-26T01:22:06.846Z,64.31
2022-09-26T01:22:56.260Z,62.32
2022-09-26T01:23:35.386Z,60.65
2022-09-26T01:24:41.791Z,58.93
2022-09-26T01:25:36.846Z,57.87
2022-09-26T01:26:43.507Z,57.76
2022-09-26T01:27:28.940Z,58.15
2022-09-26T01:28:22.685Z,59.29
2022-09-26T01:29:31.475Z,59.87
2022-09-26T01:30:26.819Z,60.39
2022-09-26T01:31:22.929Z,61.57
2022-09-26T01:32:34.650Z,62.66
2022-09-26T01:33:07.988Z,65.00
2022-09-26T01:34:08.493Z,63.41
2022-09-26T01:35:26.368Z,63.66
2022-09-26T01:36:15.011Z,62.09
2022-09-26T01:37:10.224Z,60.01
2022-09-26T01:38:04.283Z,59.15
2022-09-26T01:38:59.754Z,58.18
2022-09-26T01:39:55.729Z,58.21
2022-09-26T01:41:07.690Z,58.86
2022-09-26T01:42:19.401Z,59.37
2022-09-26T01:43:07.033Z,60.31
2022-09-26T01:44:01.670Z,61.80
2022-09-26T01:44:50.009Z,62.75
2022-09-26T01:45:31.621Z,64.09
2022-09-26T01:46:13.823Z,64.12
2022-09-26T01:46:56.216Z,63.45
2022-09-26T01:47:43.947Z,62.40
2022-09-26T01:48:26.628Z,61.67
2022-09-26T01:49:18.204Z,60.53
2022-09-26T01:50:02.808Z,59.68
2022-09-26T01:50:43.503Z,58.20
2022-09-26T01:51:21.704Z,57.68
2022-09-26T01:51:58.718Z,57.93
2022-09-26T01:53:01.842Z,58.84
2022-09-26T01:53:39.672Z,59.12
2022-09-26T01:54:18.487Z,60.62
2022-09-26T01:55:06.261Z,60.91
2022-09-26T01:55:45.483Z,61.54
2022-09-26T01:56:23.733Z,62.35
2022-09-26T01:56:58.954Z,63.00
2022-09-26T01:57:42.926Z,63.59
2022-09-26T01:58:48.556Z,63.78
2022-09-26T01:59:29.496Z,63.87
2022-09-26T02:00:07.987Z,63.12
2022-09-26T02:00:46.474Z,62.27
2022-09-26T02:01:22.856Z,61.48
2022-09-26T02:02:03.272Z,60.40
2022-09-26T02:02:41.444Z,59.63
2022-09-26T02:03:20.150Z,58.81
2022-09-26T02:03:57.161Z,58.05
2022-09-26T02:04:38.187Z,57.83
2022-09-26T02:05:30.006Z,58.18
2022-09-26T02:06:10.577Z,59.07
2022-09-26T02:07:00.787Z,59.21
2022-09-26T02:07:41.701Z,59.58
2022-09-26T02:08:24.598Z,59.94
2022-09-26T02:09:01.760Z,60.83
2022-09-26T02:09:52.475Z,62.11
2022-09-26T02:10:34.643Z,62.40
2022-09-26T02:11:19.256Z,63.52
2022-09-26T02:11:56.432Z,63.74
2022-09-26T02:12:36.843Z,62.95
2022-09-26T02:13:16.648Z,62.29
2022-09-26T02:14:02.989Z,61.35
2022-09-26T02:14:38.327Z,60.72
2022-09-26T02:15:17.306Z,59.26
2022-09-26T02:15:56.387Z,58.36
2022-09-26T02:16:32.346Z,57.87
2022-09-26T02:17:08.684Z,57.92
2022-09-26T02:17:54.045Z,58.26
2022-09-26T02:18:50.007Z,58.84
2022-09-26T02:19:29.727Z,59.84
2022-09-26T02:20:18.849Z,60.34
2022-09-26T02:21:09.822Z,60.65
2022-09-26T02:21:44.446Z,61.41
2022-09-26T02:22:18.322Z,62.55
2022-09-26T02:22:51.488Z,63.29
2022-09-26T02:23:24.548Z,63.53
2022-09-26T02:23:57.651Z,63.22
2022-09-26T02:24:31.258Z,62.66
2022-09-26T02:25:05.417Z,61.88
2022-09-26T02:25:38.521Z,61.06
2022-09-26T02:26:11.572Z,60.15
2022-09-26T02:26:44.752Z,59.37
2022-09-26T02:27:17.868Z,58.39
2022-09-26T02:27:50.942Z,57.54
2022-09-26T02:28:24.079Z,57.22
2022-09-26T02:28:57.296Z,57.14
2022-09-26T02:29:30.522Z,57.43
2022-09-26T02:30:05.999Z,57.96
2022-09-26T02:30:40.369Z,58.47
2022-09-26T02:31:20.833Z,59.22
2022-09-26T02:32:12.889Z,59.71
2022-09-26T02:32:46.308Z,60.19
2022-09-26T02:33:19.472Z,61.40
2022-09-26T02:33:53.380Z,62.00
2022-09-26T02:34:27.266Z,62.49
2022-09-26T02:35:01.403Z,63.04
2022-09-26T02:35:53.025Z,63.39
2022-09-26T02:36:29.073Z,63.38
2022-09-26T02:37:02.379Z,63.13
2022-09-26T02:37:36.887Z,62.74
2022-09-26T02:38:10.089Z,62.30
2022-09-26T02:38:43.219Z,61.96
2022-09-26T02:39:16.222Z,61.53
2022-09-26T02:39:51.440Z,60.86
2022-09-26T02:40:36.960Z,60.39
2022-09-26T02:41:22.744Z,60.16
2022-09-26T02:42:05.119Z,58.97
2022-09-26T02:42:47.974Z,57.65
2022-09-26T02:43:29.323Z,57.30
2022-09-26T02:44:05.207Z,57.55
2022-09-26T02:44:59.865Z,58.16
2022-09-26T02:46:11.451Z,58.39
2022-09-26T02:47:13.487Z,58.84
2022-09-26T02:48:10.400Z,60.06
2022-09-26T02:49:20.628Z,61.03
2022-09-26T02:50:21.709Z,61.67
2022-09-26T02:51:14.874Z,63.14
2022-09-26T02:52:19.865Z,63.83
2022-09-26T02:53:08.264Z,63.76
2022-09-26T02:54:06.103Z,61.92
2022-09-26T02:55:16.695Z,60.94
2022-09-26T02:56:03.569Z,58.85
2022-09-26T02:56:53.189Z,57.15
2022-09-26T02:57:47.463Z,57.04
2022-09-26T02:58:45.960Z,57.45
2022-09-26T02:59:43.234Z,58.23
2022-09-26T03:00:32.033Z,59.37
2022-09-26T03:01:23.253Z,59.92
2022-09-26T03:02:16.145Z,60.73
2022-09-26T03:03:17.235Z,61.29
2022-09-26T03:04:02.747Z,61.47
2022-09-26T03:04:45.773Z,62.78
2022-09-26T03:05:22.728Z,63.53
2022-09-26T03:05:59.410Z,63.55
2022-09-26T03:06:42.206Z,63.42
2022-09-26T03:07:23.812Z,63.25
2022-09-26T03:08:20.949Z,62.43
2022-09-26T03:08:57.115Z,61.58
2022-09-26T03:09:31.270Z,60.02
2022-09-26T03:10:07.810Z,58.92
2022-09-26T03:10:42.383Z,58.01
2022-09-26T03:11:26.431Z,57.59
2022-09-26T03:12:02.767Z,57.30
2022-09-26T03:12:38.396Z,57.97
2022-09-26T03:13:15.246Z,58.39
2022-09-26T03:13:53.504Z,58.80
2022-09-26T03:14:29.284Z,59.39
2022-09-26T03:15:05.081Z,60.06
2022-09-26T03:15:40.921Z,60.66
2022-09-26T03:16:15.217Z,61.18
2022-09-26T03:16:51.751Z,61.73
2022-09-26T03:17:27.219Z,62.57
2022-09-26T03:18:03.707Z,62.93
2022-09-26T03:18:47.356Z,63.24
2022-09-26T03:19:34.570Z,63.54
2022-09-26T03:20:07.701Z,62.88
2022-09-26T03:20:41.771Z,61.44
2022-09-26T03:21:15.269Z,60.42
2022-09-26T03:21:49.002Z,59.69
2022-09-26T03:22:22.357Z,58.79
2022-09-26T03:22:56.318Z,57.82
2022-09-26T03:23:29.891Z,57.32
2022-09-26T03:24:03.225Z,57.37
2022-09-26T03:24:37.480Z,57.64
2022-09-26T03:25:16.567Z,58.25
2022-09-26T03:26:02.205Z,58.56
2022-09-26T03:26:36.495Z,59.08
2022-09-26T03:27:12.686Z,60.06
2022-09-26T03:27:47.528Z,60.56
2022-09-26T03:28:20.618Z,61.20
2022-09-26T03:28:54.859Z,61.78
2022-09-26T03:29:28.432Z,62.17
2022-09-26T03:30:01.684Z,62.61
2022-09-26T03:30:35.119Z,63.12
2022-09-26T03:31:08.392Z,63.22
2022-09-26T03:31:41.523Z,62.89
2022-09-26T03:32:14.875Z,62.23
2022-09-26T03:32:48.803Z,61.51
2022-09-26T03:33:21.904Z,60.76
2022-09-26T03:33:55.023Z,59.83
2022-09-26T03:34:28.214Z,58.97
2022-09-26T03:35:01.162Z,58.00
2022-09-26T03:35:34.130Z,57.50
2022-09-26T03:36:09.675Z,57.43
2022-09-26T03:36:43.175Z,57.62
2022-09-26T03:37:17.365Z,58.03
2022-09-26T03:37:50.428Z,58.51
2022-09-26T03:38:23.485Z,59.09
2022-09-26T03:38:56.604Z,59.67
2022-09-26T03:39:29.658Z,60.42
2022-09-26T03:40:05.803Z,61.04
2022-09-26T03:40:39.639Z,61.40
2022-09-26T03:41:12.913Z,61.85
2022-09-26T03:41:45.971Z,62.15
2022-09-26T03:42:19.015Z,62.53
2022-09-26T03:42:52.148Z,63.13
2022-09-26T03:43:25.273Z,63.35
2022-09-26T03:43:58.301Z,63.08
2022-09-26T03:44:31.366Z,62.45
2022-09-26T03:45:08.797Z,61.60
2022-09-26T03:45:42.589Z,60.95
2022-09-26T03:46:16.077Z,59.70
2022-09-26T03:46:49.365Z,58.87
2022-09-26T03:47:22.434Z,57.99
2022-09-26T03:47:57.717Z,57.54
2022-09-26T03:48:31.866Z,57.39
2022-09-26T03:49:04.932Z,57.67
2022-09-26T03:49:39.129Z,58.11
2022-09-26T03:50:12.265Z,58.68
2022-09-26T03:50:45.800Z,59.07
2022-09-26T03:51:19.740Z,59.49
2022-09-26T03:51:52.917Z,60.01
2022-09-26T03:52:27.200Z,60.61
2022-09-26T03:53:01.529Z,61.09
2022-09-26T03:53:37.024Z,61.59
2022-09-26T03:54:13.407Z,61.88
2022-09-26T03:54:46.525Z,62.37
2022-09-26T03:55:19.813Z,62.85
2022-09-26T03:55:52.959Z,63.42
2022-09-26T03:56:27.206Z,63.53
2022-09-26T03:57:00.226Z,63.29
2022-09-26T03:57:33.428Z,62.50
2022-09-26T03:58:06.705Z,61.68
2022-09-26T03:58:40.284Z,60.59
2022-09-26T03:59:13.592Z,59.42
2022-09-26T03:59:47.292Z,58.32
2022-09-26T04:00:20.476Z,57.33
2022-09-26T04:00:53.565Z,56.91
2022-09-26T04:01:27.084Z,56.84
2022-09-26T04:02:00.461Z,57.11
2022-09-26T04:02:34.864Z,57.59
2022-09-26T04:03:07.972Z,58.13
2022-09-26T04:03:50.029Z,58.71
2022-09-26T04:04:24.994Z,59.17
2022-09-26T04:04:58.102Z,59.83
2022-09-26T04:05:31.250Z,60.35
2022-09-26T04:06:05.797Z,60.89
2022-09-26T04:06:39.456Z,61.46
2022-09-26T04:07:12.589Z,62.01
2022-09-26T04:07:47.563Z,62.53
2022-09-26T04:08:20.736Z,63.25
2022-09-26T04:08:54.190Z,63.59
2022-09-26T04:09:27.448Z,63.36
2022-09-26T04:10:00.724Z,62.66
2022-09-26T04:10:33.899Z,61.67
2022-09-26T04:11:10.324Z,60.72
2022-09-26T04:11:43.665Z,60.00
2022-09-26T04:12:16.710Z,59.07
2022-09-26T04:12:49.769Z,58.17
2022-09-26T04:13:49.466Z,57.80
2022-09-26T04:14:16.355Z,57.75
2022-09-26T04:14:49.352Z,58.25
2022-09-26T04:15:22.669Z,58.75
2022-09-26T04:15:57.318Z,59.37
2022-09-26T04:16:30.673Z,59.92
2022-09-26T04:17:03.747Z,60.51
2022-09-26T04:17:37.307Z,61.07
2022-09-26T04:18:10.603Z,61.59
2022-09-26T04:18:43.782Z,62.09
2022-09-26T04:19:16.983Z,62.61
2022-09-26T04:19:50.224Z,63.40
2022-09-26T04:20:23.708Z,63.72
2022-09-26T04:21:00.964Z,63.54
2022-09-26T04:21:35.742Z,63.12
2022-09-26T04:22:08.864Z,62.20
2022-09-26T04:22:42.778Z,61.16
2022-09-26T04:23:16.101Z,60.31
2022-09-26T04:23:50.499Z,59.42
2022-09-26T04:24:24.295Z,58.56
2022-09-26T04:24:57.489Z,57.74
2022-09-26T04:25:30.639Z,57.40
2022-09-26T04:26:05.656Z,57.57
2022-09-26T04:26:41.552Z,57.89
2022-09-26T04:27:15.606Z,58.33
2022-09-26T04:27:48.857Z,59.07
2022-09-26T04:28:23.543Z,59.68
2022-09-26T04:28:58.118Z,60.30
2022-09-26T04:29:31.247Z,60.98
2022-09-26T04:30:04.770Z,61.69
2022-09-26T04:30:38.535Z,62.39
2022-09-26T04:31:12.917Z,63.05
2022-09-26T04:31:46.502Z,63.91
2022-09-26T04:32:19.822Z,63.99
2022-09-26T04:32:52.996Z,63.51
2022-09-26T04:33:26.362Z,62.76
2022-09-26T04:34:00.582Z,61.81
2022-09-26T04:34:33.661Z,60.91
2022-09-26T04:35:07.077Z,60.01
2022-09-26T04:35:40.229Z,59.12
2022-09-26T04:36:15.524Z,58.05
2022-09-26T04:36:48.664Z,57.50
2022-09-26T04:37:21.948Z,57.36
2022-09-26T04:37:55.068Z,57.62
2022-09-26T04:38:34.732Z,58.18
2022-09-26T04:39:07.932Z,58.68
2022-09-26T04:39:42.250Z,59.53
2022-09-26T04:40:15.682Z,59.99
2022-09-26T04:40:48.919Z,60.60
2022-09-26T04:41:22.499Z,61.07
2022-09-26T04:41:55.579Z,61.55
2022-09-26T04:42:28.749Z,61.97
2022-09-26T04:43:02.258Z,62.16
2022-09-26T04:43:36.179Z,62.52
2022-09-26T04:44:13.098Z,63.13
2022-09-26T04:44:46.415Z,63.49
2022-09-26T04:45:19.565Z,62.97
2022-09-26T04:45:52.742Z,62.06
2022-09-26T04:46:30.652Z,61.22
2022-09-26T04:47:04.330Z,60.61
2022-09-26T04:47:37.387Z,59.49
2022-09-26T04:48:10.657Z,58.52
2022-09-26T04:48:44.723Z,57.74
2022-09-26T04:49:17.892Z,57.41
2022-09-26T04:49:51.899Z,57.43
2022-09-26T04:50:25.086Z,57.80
2022-09-26T04:50:58.728Z,58.25
2022-09-26T04:51:32.960Z,58.87
2022-09-26T04:52:06.562Z,59.56
2022-09-26T04:52:39.504Z,60.27
2022-09-26T04:53:12.823Z,60.89
2022-09-26T04:53:46.620Z,61.48
2022-09-26T04:54:20.661Z,62.09
2022-09-26T04:54:54.577Z,62.66
2022-09-26T04:55:28.231Z,63.51
2022-09-26T04:56:02.164Z,63.80
2022-09-26T04:56:35.339Z,63.43
2022-09-26T04:57:08.504Z,62.72
2022-09-26T04:57:41.712Z,61.93
2022-09-26T04:58:17.252Z,61.11
2022-09-26T04:58:50.660Z,60.37
2022-09-26T04:59:23.807Z,59.43
2022-09-26T04:59:56.888Z,58.43
2022-09-26T05:00:30.333Z,57.84
2022-09-26T05:01:06.200Z,57.82
2022-09-26T05:01:39.682Z,57.97
2022-09-26T05:02:12.862Z,58.44
2022-09-26T05:02:47.510Z,59.07
2022-09-26T05:03:20.675Z,59.73
2022-09-26T05:03:55.931Z,60.35
2022-09-26T05:04:33.585Z,60.95
2022-09-26T05:05:07.106Z,61.60
2022-09-26T05:05:41.583Z,62.29
2022-09-26T05:06:16.414Z,62.90
2022-09-26T05:06:50.189Z,63.57
2022-09-26T05:07:23.268Z,63.71
2022-09-26T05:07:57.523Z,63.30
2022-09-26T05:08:30.675Z,62.52
2022-09-26T05:09:04.684Z,61.62
2022-09-26T05:09:37.970Z,60.93
2022-09-26T05:10:11.692Z,60.18
2022-09-26T05:10:53.075Z,59.50
2022-09-26T05:11:26.266Z,59.01
2022-09-26T05:11:59.554Z,58.23
2022-09-26T05:12:33.341Z,58.18
2022-09-26T05:13:07.909Z,58.34
2022-09-26T05:13:41.035Z,58.77
2022-09-26T05:14:14.411Z,59.34
2022-09-26T05:14:47.553Z,59.95
2022-09-26T05:15:21.853Z,60.58
2022-09-26T05:15:55.997Z,61.20
2022-09-26T05:16:30.345Z,61.80
2022-09-26T05:17:04.143Z,62.45
2022-09-26T05:17:37.981Z,63.18
2022-09-26T05:18:14.219Z,63.75
2022-09-26T05:18:53.419Z,63.99
2022-09-26T05:19:27.159Z,63.65
2022-09-26T05:20:01.373Z,62.63
2022-09-26T05:20:48.501Z,61.79
2022-09-26T05:21:21.788Z,61.52
2022-09-26T05:21:55.180Z,60.07
2022-09-26T05:22:32.036Z,59.51
2022-09-26T05:23:07.590Z,59.05
2022-09-26T05:23:59.403Z,58.42
2022-09-26T05:24:51.220Z,58.19
2022-09-26T05:25:44.449Z,58.73
2022-09-26T05:26:23.732Z,59.35
2022-09-26T05:26:56.945Z,60.54
2022-09-26T05:27:31.044Z,61.37
2022-09-26T05:28:04.466Z,62.02
2022-09-26T05:28:38.018Z,62.63
2022-09-26T05:29:12.423Z,63.38
2022-09-26T05:29:46.451Z,63.84
2022-09-26T05:30:19.784Z,63.65
2022-09-26T05:30:53.717Z,63.10
2022-09-26T05:31:29.461Z,62.51
2022-09-26T05:32:02.931Z,61.77
2022-09-26T05:32:36.237Z,60.99
2022-09-26T05:33:10.210Z,60.35
2022-09-26T05:33:44.850Z,59.68
2022-09-26T05:34:20.201Z,59.09
2022-09-26T05:34:54.685Z,58.55
2022-09-26T05:35:28.017Z,58.42
2022-09-26T05:36:01.335Z,58.69
2022-09-26T05:36:34.861Z,59.21
2022-09-26T05:37:07.881Z,59.79
2022-09-26T05:37:41.301Z,60.45
2022-09-26T05:38:14.617Z,61.13
2022-09-26T05:38:48.054Z,61.79
2022-09-26T05:39:42.508Z,62.46
2022-09-26T05:40:34.740Z,63.16
2022-09-26T05:41:07.955Z,64.39
2022-09-26T05:41:41.076Z,63.57
2022-09-26T05:42:15.537Z,62.93
2022-09-26T05:42:48.566Z,62.24
2022-09-26T05:43:22.981Z,61.32
2022-09-26T05:43:56.662Z,60.68
2022-09-26T05:44:31.050Z,59.84
2022-09-26T05:45:05.207Z,59.34
2022-09-26T05:45:38.758Z,58.72
2022-09-26T05:46:12.458Z,58.60
2022-09-26T05:46:47.810Z,58.77
2022-09-26T05:47:22.161Z,59.20
2022-09-26T05:47:55.266Z,59.84
2022-09-26T05:48:30.132Z,60.50
2022-09-26T05:49:03.417Z,61.10
2022-09-26T05:49:36.940Z,61.81
2022-09-26T05:50:11.216Z,62.45
2022-09-26T05:50:44.303Z,63.14
2022-09-26T05:51:21.564Z,63.81
2022-09-26T05:51:54.933Z,64.32
2022-09-26T05:52:29.186Z,64.08
2022-09-26T05:53:03.378Z,63.52
2022-09-26T05:53:37.095Z,62.81
2022-09-26T05:54:10.473Z,61.98
2022-09-26T05:54:43.831Z,61.11
2022-09-26T05:55:17.174Z,60.34
2022-09-26T05:55:51.363Z,59.65
2022-09-26T05:56:25.101Z,59.10
2022-09-26T05:56:58.456Z,58.75
2022-09-26T05:57:32.192Z,58.74
2022-09-26T05:58:06.577Z,58.99
2022-09-26T05:58:41.814Z,59.47
2022-09-26T05:59:15.006Z,60.03
2022-09-26T05:59:48.515Z,60.78
2022-09-26T06:00:21.803Z,61.47
2022-09-26T06:00:55.054Z,62.17
2022-09-26T06:01:28.105Z,62.78
2022-09-26T06:02:01.427Z,63.45
2022-09-26T06:02:35.487Z,63.83
2022-09-26T06:03:09.071Z,63.66
2022-09-26T06:03:44.347Z,63.22
2022-09-26T06:04:19.486Z,62.67
2022-09-26T06:04:52.760Z,61.77
2022-09-26T06:05:26.405Z,61.04
2022-09-26T06:06:03.379Z,60.49
2022-09-26T06:06:36.817Z,60.11
2022-09-26T06:07:10.931Z,59.32
2022-09-26T06:07:44.294Z,58.62
2022-09-26T06:08:17.700Z,58.33
2022-09-26T06:08:51.300Z,58.36
2022-09-26T06:09:24.517Z,58.67
2022-09-26T06:09:57.585Z,59.16
2022-09-26T06:10:31.629Z,59.74
2022-09-26T06:11:10.794Z,60.41
2022-09-26T06:11:44.009Z,61.01
2022-09-26T06:12:20.016Z,61.84
2022-09-26T06:12:53.223Z,62.41
2022-09-26T06:13:27.012Z,63.20
2022-09-26T06:14:01.052Z,63.89
2022-09-26T06:14:34.488Z,64.03
2022-09-26T06:15:09.828Z,63.59
2022-09-26T06:15:43.481Z,62.92
2022-09-26T06:16:19.304Z,62.10
2022-09-26T06:16:53.039Z,61.34
2022-09-26T06:17:26.893Z,60.41
2022-09-26T06:18:06.441Z,59.86
2022-09-26T06:18:40.138Z,59.25
2022-09-26T06:19:13.324Z,58.60
2022-09-26T06:19:46.661Z,58.54
2022-09-26T06:20:19.842Z,58.80
2022-09-26T06:20:53.232Z,59.24
2022-09-26T06:21:26.504Z,59.74
2022-09-26T06:22:00.281Z,60.36
2022-09-26T06:22:41.801Z,61.02
2022-09-26T06:23:14.925Z,61.42
2022-09-26T06:23:48.049Z,62.26
2022-09-26T06:24:21.623Z,62.99
2022-09-26T06:24:55.200Z,63.68
2022-09-26T06:25:29.636Z,63.90
2022-09-26T06:26:04.053Z,63.72
2022-09-26T06:26:37.953Z,63.12
2022-09-26T06:27:11.570Z,62.29
2022-09-26T06:27:44.569Z,61.52
2022-09-26T06:28:18.782Z,60.75
2022-09-26T06:29:02.745Z,60.17
2022-09-26T06:29:35.967Z,59.93
2022-09-26T06:30:13.270Z,58.78
2022-09-26T06:30:46.427Z,58.21
2022-09-26T06:31:21.062Z,58.10
2022-09-26T06:31:54.360Z,58.11
2022-09-26T06:32:27.831Z,58.53
2022-09-26T06:33:02.039Z,59.13
2022-09-26T06:33:35.191Z,59.68
2022-09-26T06:34:08.434Z,60.37
2022-09-26T06:34:41.567Z,61.06
2022-09-26T06:35:15.261Z,61.78
2022-09-26T06:35:48.548Z,62.31
2022-09-26T06:36:23.956Z,62.98
2022-09-26T06:36:57.092Z,63.54
2022-09-26T06:37:30.247Z,63.90
2022-09-26T06:38:05.371Z,63.69
2022-09-26T06:38:39.547Z,63.14
2022-09-26T06:39:13.172Z,62.31
2022-09-26T06:39:46.631Z,61.38
2022-09-26T06:40:19.848Z,60.53
2022-09-26T06:40:55.717Z,59.82
2022-09-26T06:41:29.038Z,59.22
2022-09-26T06:42:05.965Z,58.48
2022-09-26T06:42:39.481Z,58.29
2022-09-26T06:43:12.703Z,58.53
2022-09-26T06:43:46.565Z,58.70
2022-09-26T06:44:19.661Z,59.25
2022-09-26T06:44:52.847Z,59.93
2022-09-26T06:45:29.116Z,60.54
2022-09-26T06:46:02.576Z,61.05
2022-09-26T06:46:35.810Z,61.69
2022-09-26T06:47:09.258Z,62.26
2022-09-26T06:47:42.435Z,62.70
2022-09-26T06:48:21.007Z,63.39
2022-09-26T06:48:57.731Z,63.84
2022-09-26T06:49:30.964Z,63.25
2022-09-26T06:50:05.220Z,62.56
2022-09-26T06:50:38.534Z,61.88
2022-09-26T06:51:14.074Z,60.88
2022-09-26T06:51:49.274Z,60.27
2022-09-26T06:52:22.318Z,59.52
2022-09-26T06:52:55.629Z,58.80
2022-09-26T06:53:28.833Z,58.19
2022-09-26T06:54:01.971Z,58.09
2022-09-26T06:54:35.175Z,58.34
2022-09-26T06:55:09.676Z,58.73
2022-09-26T06:55:42.847Z,59.24
2022-09-26T06:56:16.935Z,59.85
2022-09-26T06:56:50.049Z,60.48
2022-09-26T06:57:23.298Z,61.20
2022-09-26T06:57:58.920Z,61.80
2022-09-26T06:58:32.387Z,62.39
2022-09-26T06:59:05.537Z,63.02
2022-09-26T06:59:39.240Z,63.58
2022-09-26T07:00:16.068Z,63.76
2022-09-26T07:00:49.320Z,63.57
2022-09-26T07:01:22.686Z,62.61
2022-09-26T07:01:56.062Z,61.55
2022-09-26T07:02:29.409Z,60.56
2022-09-26T07:03:03.144Z,59.83
2022-09-26T07:03:38.640Z,59.35
2022-09-26T07:04:16.318Z,58.82
2022-09-26T07:04:49.713Z,58.72
2022-09-26T07:05:24.930Z,58.96
2022-09-26T07:05:58.666Z,59.40
2022-09-26T07:06:31.932Z,59.91
2022-09-26T07:07:06.125Z,60.36
2022-09-26T07:07:43.335Z,60.86
2022-09-26T07:08:17.328Z,61.26
2022-09-26T07:09:12.074Z,62.00
2022-09-26T07:09:45.623Z,62.27
2022-09-26T07:10:20.053Z,63.38
2022-09-26T07:11:02.917Z,63.54
2022-09-26T07:12:12.915Z,63.49
2022-09-26T07:12:44.221Z,62.90
2022-09-26T07:13:17.739Z,61.44
2022-09-26T07:13:51.031Z,60.59
2022-09-26T07:14:24.110Z,59.90
2022-09-26T07:14:58.293Z,59.25
2022-09-26T07:15:34.190Z,58.50
2022-09-26T07:16:07.502Z,58.19
2022-09-26T07:16:40.802Z,58.32
2022-09-26T07:17:18.228Z,58.78
2022-09-26T07:17:51.450Z,59.26
2022-09-26T07:18:24.914Z,60.03
2022-09-26T07:18:58.311Z,60.66
2022-09-26T07:19:31.472Z,61.30
2022-09-26T07:20:05.118Z,61.99
2022-09-26T07:20:41.149Z,62.66
2022-09-26T07:21:14.313Z,63.36
2022-09-26T07:21:48.361Z,63.68
2022-09-26T07:22:21.468Z,63.70
2022-09-26T07:22:55.015Z,63.28
2022-09-26T07:23:28.144Z,62.80
2022-09-26T07:24:01.472Z,62.09
2022-09-26T07:24:35.263Z,61.31
2022-09-26T07:25:09.227Z,60.68
2022-09-26T07:25:46.269Z,60.19
2022-09-26T07:26:19.847Z,59.77
2022-09-26T07:26:52.979Z,59.15
2022-09-26T07:27:26.286Z,58.42
2022-09-26T07:28:00.827Z,58.25
2022-09-26T07:28:35.103Z,58.44
2022-09-26T07:29:09.281Z,58.79
2022-09-26T07:29:42.480Z,59.44
2022-09-26T07:30:15.696Z,60.05
2022-09-26T07:30:49.082Z,60.71
2022-09-26T07:31:26.468Z,61.31
2022-09-26T07:32:00.366Z,61.84
2022-09-26T07:32:33.503Z,62.55
2022-09-26T07:33:06.697Z,63.26
2022-09-26T07:33:40.425Z,63.51
2022-09-26T07:34:18.072Z,63.33
2022-09-26T07:34:53.562Z,62.83
2022-09-26T07:35:27.790Z,61.91
2022-09-26T07:36:05.240Z,61.15
2022-09-26T07:36:40.848Z,60.56
2022-09-26T07:37:17.015Z,59.85
2022-09-26T07:37:53.254Z,59.24
2022-09-26T07:38:26.427Z,58.38
2022-09-26T07:39:01.394Z,58.17
2022-09-26T07:39:34.515Z,58.40
2022-09-26T07:40:08.231Z,58.84
2022-09-26T07:40:43.474Z,59.30
2022-09-26T07:41:17.930Z,59.85
2022-09-26T07:41:51.207Z,60.44
2022-09-26T07:42:24.729Z,61.05
2022-09-26T07:43:19.047Z,61.56
2022-09-26T07:44:46.006Z,61.85
2022-09-26T07:45:20.902Z,62.78
2022-09-26T07:45:58.448Z,63.50
2022-09-26T07:46:50.247Z,63.19
2022-09-26T07:47:41.909Z,63.03
2022-09-26T07:48:33.570Z,62.71
2022-09-26T07:49:25.678Z,62.11
2022-09-26T07:50:16.106Z,60.72
2022-09-26T07:50:54.666Z,59.79
2022-09-26T07:51:27.932Z,58.27
2022-09-26T07:52:01.236Z,58.13
2022-09-26T07:52:34.872Z,58.39
2022-09-26T07:53:08.470Z,58.56
2022-09-26T07:53:41.500Z,59.07
2022-09-26T07:54:14.769Z,59.70
2022-09-26T07:54:47.912Z,60.31
2022-09-26T07:55:26.068Z,60.85
2022-09-26T07:56:11.360Z,61.20
2022-09-26T07:56:45.283Z,61.78
2022-09-26T07:57:19.728Z,62.61
2022-09-26T07:57:53.063Z,63.29
2022-09-26T07:58:26.698Z,63.57